createdAt,value
2018-01-14T00:01:24.168Z,33.78
2018-01-14T00:03:52.017Z,27.58
2018-01-14T00:06:19.860Z,27.87
2018-01-14T00:08:47.715Z,30.40
2018-01-14T00:11:15.551Z,27.83
2018-01-14T00:13:43.401Z,29.23
2018-01-14T00:16:11.244Z,31.85
2018-01-14T00:18:39.151Z,32.35
2018-01-14T00:21:07.007Z,31.12
2018-01-14T00:23:34.843Z,29.60
2018-01-14T00:26:02.709Z,34.28
2018-01-14T00:28:30.566Z,28.77
2018-01-14T00:30:58.445Z,19.83
2018-01-14T00:33:26.319Z,33.08
2018-01-14T00:35:54.168Z,29.40
2018-01-14T00:38:22.032Z,24.48
2018-01-14T00:40:49.908Z,30.23
2018-01-14T00:43:17.776Z,26.10
2018-01-14T00:45:45.630Z,27.75
2018-01-14T00:48:13.479Z,31.80
2018-01-14T00:50:41.320Z,30.60
2018-01-14T00:53:09.149Z,34.15
2018-01-14T00:55:36.997Z,37.03
2018-01-14T00:58:04.844Z,28.80
2018-01-14T01:00:32.726Z,31.83
2018-01-14T01:03:00.597Z,33.28
2018-01-14T01:05:28.469Z,34.33
2018-01-14T01:07:56.303Z,30.83
2018-01-14T01:10:24.146Z,32.60
2018-01-14T01:12:51.950Z,31.10
2018-01-14T01:15:19.823Z,29.63
2018-01-14T01:17:47.684Z,33.28
2018-01-14T01:20:15.524Z,26.98
2018-01-14T01:22:43.416Z,28.75
2018-01-14T01:25:11.284Z,33.45
2018-01-14T01:27:39.123Z,29.67
2018-01-14T01:30:06.983Z,27.40
2018-01-14T01:32:34.860Z,27.77
2018-01-14T01:35:02.715Z,33.85
2018-01-14T01:37:30.569Z,30.25
2018-01-14T01:39:58.403Z,26.65
2018-01-14T01:45:19.172Z,33.33
2018-01-14T01:47:47.040Z,31.52
2018-01-14T01:50:14.920Z,33.97
2018-01-14T01:52:42.771Z,35.28
2018-01-14T01:55:10.614Z,34.17
2018-01-14T01:57:38.465Z,32.75
2018-01-14T02:00:06.298Z,36.58
2018-01-14T02:02:34.132Z,31.90
2018-01-14T02:05:01.961Z,40.22
2018-01-14T02:07:29.827Z,30.45
2018-01-14T02:09:57.693Z,34.80
2018-01-14T02:12:25.531Z,30.33
2018-01-14T02:14:53.387Z,31.58
2018-01-14T02:17:21.257Z,37.20
2018-01-14T02:19:49.120Z,39.40
2018-01-14T02:22:17.067Z,36.08
2018-01-14T02:24:44.929Z,36.65
2018-01-14T02:27:12.776Z,35.15
2018-01-14T02:29:40.691Z,39.17
2018-01-14T02:32:08.605Z,35.00
2018-01-14T02:34:36.487Z,36.47
2018-01-14T02:37:04.330Z,32.70
2018-01-14T02:39:32.199Z,39.40
2018-01-14T02:42:00.065Z,40.58
2018-01-14T02:44:27.932Z,28.73
2018-01-14T02:46:55.804Z,33.25
2018-01-14T02:49:23.679Z,33.75
2018-01-14T02:51:51.525Z,35.53
2018-01-14T02:54:19.373Z,34.25
2018-01-14T02:56:47.214Z,34.10
2018-01-14T02:59:15.059Z,29.17
2018-01-14T03:01:45.369Z,32.03
2018-01-14T03:04:13.807Z,34.85
2018-01-14T03:06:41.648Z,33.05
2018-01-14T03:09:09.496Z,34.60
2018-01-14T03:11:37.379Z,32.47
2018-01-14T03:14:05.230Z,36.20
2018-01-14T03:16:33.108Z,40.63
2018-01-14T03:19:00.964Z,34.25
2018-01-14T03:21:28.808Z,39.50
2018-01-14T03:23:56.715Z,33.17
2018-01-14T03:26:24.552Z,34.60
2018-01-14T03:28:52.395Z,40.03
2018-01-14T03:31:20.255Z,34.58
2018-01-14T03:33:48.079Z,34.78
2018-01-14T03:36:15.934Z,32.95
2018-01-14T03:38:43.800Z,36.47
2018-01-14T03:41:11.646Z,34.35
2018-01-14T03:43:39.487Z,35.47
2018-01-14T03:46:07.360Z,33.08
2018-01-14T03:48:35.203Z,33.38
2018-01-14T03:51:03.052Z,41.13
2018-01-14T03:53:30.876Z,34.70
2018-01-14T03:55:58.739Z,33.65
2018-01-14T03:58:26.555Z,38.47
2018-01-14T04:00:54.412Z,35.92
2018-01-14T04:03:22.257Z,38.50
2018-01-14T04:05:50.079Z,38.35
2018-01-14T04:08:17.905Z,38.95
2018-01-14T04:10:45.761Z,34.20
2018-01-14T04:13:13.580Z,38.35
2018-01-14T04:15:41.444Z,41.05
2018-01-14T04:18:09.326Z,35.45
2018-01-14T04:20:37.192Z,37.47
2018-01-14T04:23:05.028Z,38.88
2018-01-14T04:25:32.849Z,40.67
2018-01-14T04:28:00.691Z,41.28
2018-01-14T04:30:28.556Z,42.33
2018-01-14T04:32:56.427Z,39.25
2018-01-14T04:35:24.244Z,33.92
2018-01-14T04:37:52.115Z,40.90
2018-01-14T04:40:19.977Z,40.35
2018-01-14T04:42:47.859Z,42.50
2018-01-14T04:45:15.716Z,44.90
2018-01-14T04:47:43.571Z,37.67
2018-01-14T04:50:11.454Z,49.05
2018-01-14T04:52:39.280Z,43.78
2018-01-14T04:55:07.136Z,45.97
2018-01-14T04:57:34.978Z,39.90
2018-01-14T05:00:02.824Z,41.37
2018-01-14T05:02:30.645Z,44.83
2018-01-14T05:04:58.515Z,43.15
2018-01-14T05:07:26.359Z,41.50
2018-01-14T05:09:54.204Z,46.90
2018-01-14T05:12:22.248Z,40.05
2018-01-14T05:14:50.107Z,49.58
2018-01-14T05:17:17.962Z,44.92
2018-01-14T05:19:45.819Z,40.10
2018-01-14T05:22:13.672Z,46.65
2018-01-14T05:24:41.566Z,52.05
2018-01-14T05:27:09.432Z,40.65
2018-01-14T05:29:37.292Z,48.00
2018-01-14T05:32:05.131Z,55.58
2018-01-14T05:34:32.992Z,39.47
2018-01-14T05:37:00.815Z,47.78
2018-01-14T05:39:28.649Z,36.63
2018-01-14T05:41:56.496Z,44.90
2018-01-14T05:44:24.332Z,53.20
2018-01-14T05:46:52.186Z,46.17
2018-01-14T05:49:20.031Z,54.40
2018-01-14T05:51:47.859Z,40.67
2018-01-14T05:54:15.698Z,40.47
2018-01-14T05:56:43.524Z,40.63
2018-01-14T05:59:11.413Z,47.15
2018-01-14T06:01:39.259Z,42.67
2018-01-14T06:04:07.131Z,42.50
2018-01-14T06:06:34.960Z,38.08
2018-01-14T06:09:02.828Z,40.95
2018-01-14T06:11:30.695Z,44.10
2018-01-14T06:13:58.572Z,44.80
2018-01-14T06:16:26.388Z,48.63
2018-01-14T06:18:54.248Z,43.47
2018-01-14T06:21:22.084Z,42.45
2018-01-14T06:23:49.924Z,40.00
2018-01-14T06:26:17.803Z,35.28
2018-01-14T06:28:45.670Z,51.17
2018-01-14T06:31:13.496Z,45.35
2018-01-14T06:33:41.311Z,53.63
2018-01-14T06:36:09.136Z,46.45
2018-01-14T06:38:36.971Z,44.50
2018-01-14T06:41:04.805Z,58.95
2018-01-14T06:43:32.672Z,53.70
2018-01-14T06:46:00.512Z,56.65
2018-01-14T06:48:28.363Z,56.08
2018-01-14T06:50:56.232Z,63.20
2018-01-14T06:53:24.085Z,50.35
2018-01-14T06:55:51.935Z,49.42
2018-01-14T06:58:19.781Z,53.22
2018-01-14T07:00:47.617Z,56.83
2018-01-14T07:03:15.459Z,54.45
2018-01-14T07:05:43.296Z,57.97
2018-01-14T07:08:11.141Z,51.92
2018-01-14T07:10:38.994Z,55.47
2018-01-14T07:13:06.840Z,57.78
2018-01-14T07:15:34.683Z,48.17
2018-01-14T07:18:02.515Z,59.13
2018-01-14T07:20:30.352Z,56.17
2018-01-14T07:22:58.179Z,64.60
2018-01-14T07:25:26.008Z,63.38
2018-01-14T07:28:00.176Z,63.03
2018-01-14T07:30:29.031Z,55.17
2018-01-14T07:32:56.936Z,58.90
2018-01-14T07:35:24.780Z,58.08
2018-01-14T07:37:52.657Z,56.85
2018-01-14T07:40:20.550Z,66.28
2018-01-14T07:42:48.401Z,56.78
2018-01-14T07:45:16.256Z,68.95
2018-01-14T07:47:44.116Z,62.60
2018-01-14T07:50:11.985Z,64.62
2018-01-14T07:52:39.852Z,60.55
2018-01-14T07:55:07.680Z,61.85
2018-01-14T07:57:35.532Z,56.53
2018-01-14T08:00:03.388Z,63.60
2018-01-14T08:02:31.255Z,61.35
2018-01-14T08:04:59.109Z,57.00
2018-01-14T08:07:27.805Z,60.20
2018-01-14T08:09:55.624Z,46.65
2018-01-14T08:12:23.459Z,61.20
2018-01-14T08:14:51.302Z,61.72
2018-01-14T08:17:26.517Z,62.08
2018-01-14T08:19:54.852Z,55.60
2018-01-14T08:22:22.789Z,62.15
2018-01-14T08:24:50.680Z,61.25
2018-01-14T08:27:18.517Z,59.00
2018-01-14T08:29:46.385Z,65.43
2018-01-14T08:32:14.231Z,62.38
2018-01-14T08:34:42.081Z,60.12
2018-01-14T08:37:09.987Z,65.18
2018-01-14T08:39:37.853Z,59.75
2018-01-14T08:42:05.740Z,62.78
2018-01-14T08:44:33.560Z,56.25
2018-01-14T08:47:01.494Z,63.95
2018-01-14T08:49:29.439Z,51.72
2018-01-14T08:51:57.303Z,68.95
2018-01-14T08:54:25.125Z,57.88
2018-01-14T08:56:52.952Z,56.30
2018-01-14T08:59:20.788Z,51.37
2018-01-14T09:01:49.577Z,57.35
2018-01-14T09:04:17.424Z,58.38
2018-01-14T09:06:45.294Z,51.10
2018-01-14T09:09:13.157Z,56.17
2018-01-14T09:11:40.979Z,52.03
2018-01-14T09:14:08.820Z,56.47
2018-01-14T09:16:36.680Z,53.92
2018-01-14T09:19:04.556Z,49.85
2018-01-14T09:21:32.388Z,62.17
2018-01-14T09:26:55.216Z,53.83
2018-01-14T09:29:23.097Z,49.95
2018-01-14T09:31:51.526Z,50.97
2018-01-14T09:34:19.362Z,47.70
2018-01-14T09:36:47.238Z,53.97
2018-01-14T09:39:15.068Z,48.00
2018-01-14T09:41:43.019Z,52.50
2018-01-14T09:44:10.884Z,53.10
2018-01-14T09:46:38.754Z,52.75
2018-01-14T09:49:06.621Z,54.25
2018-01-14T09:51:34.460Z,52.75
2018-01-14T09:54:02.324Z,50.03
2018-01-14T09:56:30.172Z,46.28
2018-01-14T09:58:58.040Z,49.53
2018-01-14T10:01:25.907Z,47.45
2018-01-14T10:03:53.819Z,46.70
2018-01-14T10:06:21.624Z,55.67
2018-01-14T10:08:49.589Z,47.88
2018-01-14T10:11:17.403Z,51.65
2018-01-14T10:13:45.238Z,44.92
2018-01-14T10:16:13.084Z,44.47
2018-01-14T10:18:41.008Z,49.08
2018-01-14T10:21:10.412Z,47.80
2018-01-14T10:23:39.052Z,52.62
2018-01-14T10:26:06.895Z,54.72
2018-01-14T10:28:34.727Z,52.90
2018-01-14T10:31:02.572Z,55.12
2018-01-14T10:33:30.416Z,47.80
2018-01-14T10:35:58.268Z,50.10
2018-01-14T10:38:26.095Z,51.90
2018-01-14T10:40:53.917Z,48.33
2018-01-14T10:43:22.558Z,51.70
2018-01-14T10:45:50.416Z,47.28
2018-01-14T10:48:18.238Z,57.15
2018-01-14T10:50:46.062Z,56.95
2018-01-14T10:53:13.864Z,45.35
2018-01-14T10:55:41.695Z,47.70
2018-01-14T10:58:09.491Z,52.72
2018-01-14T11:00:43.378Z,48.53
2018-01-14T11:03:11.296Z,52.17
2018-01-14T11:05:39.192Z,51.30
2018-01-14T11:08:07.022Z,45.65
2018-01-14T11:10:34.883Z,47.53
2018-01-14T11:13:02.747Z,48.42
2018-01-14T11:15:30.598Z,56.00
2018-01-14T11:17:58.442Z,48.97
2018-01-14T11:20:26.301Z,53.83
2018-01-14T11:22:54.136Z,51.15
2018-01-14T11:25:21.974Z,47.13
2018-01-14T11:27:49.813Z,53.65
2018-01-14T11:30:17.664Z,46.20
2018-01-14T11:32:45.488Z,51.30
2018-01-14T11:35:13.297Z,48.00
2018-01-14T11:37:41.123Z,49.33
2018-01-14T11:40:08.956Z,53.70
2018-01-14T11:42:36.798Z,53.70
2018-01-14T11:45:04.658Z,50.33
2018-01-14T11:47:32.508Z,51.60
2018-01-14T11:50:00.341Z,53.92
2018-01-14T11:52:28.172Z,60.10
2018-01-14T11:54:56.004Z,57.92
2018-01-14T11:57:23.860Z,54.22
2018-01-14T11:59:51.691Z,55.42
2018-01-14T12:02:19.539Z,50.05
2018-01-14T12:04:47.385Z,52.75
2018-01-14T12:07:15.231Z,59.30
2018-01-14T12:09:43.027Z,55.75
2018-01-14T12:12:10.843Z,54.45
2018-01-14T12:14:38.948Z,52.50
2018-01-14T12:17:06.804Z,53.10
2018-01-14T12:19:34.632Z,49.97
2018-01-14T12:22:02.492Z,56.97
2018-01-14T12:24:30.432Z,53.47
2018-01-14T12:26:58.391Z,53.03
2018-01-14T12:29:26.249Z,59.10
2018-01-14T12:31:54.136Z,60.12
2018-01-14T12:34:37.068Z,56.08
2018-01-14T12:37:04.915Z,50.60
2018-01-14T12:39:32.793Z,60.08
2018-01-14T12:42:00.633Z,55.38
2018-01-14T12:44:28.845Z,53.92
2018-01-14T12:46:56.811Z,54.55
2018-01-14T12:49:24.640Z,65.12
2018-01-14T12:51:52.439Z,52.90
2018-01-14T12:54:21.373Z,51.58
2018-01-14T12:56:49.472Z,58.42
2018-01-14T12:59:17.336Z,56.60
2018-01-14T13:01:45.757Z,57.88
2018-01-14T13:04:13.576Z,68.00
2018-01-14T13:06:41.388Z,61.90
2018-01-14T13:09:09.267Z,60.67
2018-01-14T13:11:37.095Z,54.17
2018-01-14T13:14:04.951Z,50.88
2018-01-14T13:16:32.796Z,57.38
2018-01-14T13:19:00.651Z,55.60
2018-01-14T13:21:28.483Z,61.88
2018-01-14T13:23:56.280Z,51.45
2018-01-14T13:26:24.104Z,56.95
2018-01-14T13:28:51.951Z,55.88
2018-01-14T13:31:19.796Z,58.47
2018-01-14T13:33:47.648Z,54.35
2018-01-14T13:36:17.905Z,55.53
2018-01-14T13:38:45.718Z,51.13
2018-01-14T13:41:13.551Z,57.22
2018-01-14T13:43:41.359Z,59.00
2018-01-14T13:46:09.181Z,54.50
2018-01-14T13:48:37.003Z,55.45
2018-01-14T13:51:04.860Z,48.05
2018-01-14T13:53:32.710Z,58.10
2018-01-14T13:56:00.556Z,60.60
2018-01-14T13:58:28.392Z,59.33
2018-01-14T14:00:56.233Z,59.60
2018-01-14T14:03:24.067Z,63.63
2018-01-14T14:05:51.901Z,57.28
2018-01-14T14:08:19.733Z,65.03
2018-01-14T14:10:47.549Z,54.28
2018-01-14T14:13:15.372Z,63.28
2018-01-14T14:15:43.314Z,73.05
2018-01-14T14:18:11.167Z,59.53
2018-01-14T14:20:39.065Z,61.65
2018-01-14T14:23:06.903Z,58.22
2018-01-14T14:25:34.783Z,56.75
2018-01-14T14:28:02.622Z,61.35
2018-01-14T14:30:30.440Z,64.05
2018-01-14T14:32:58.390Z,60.67
2018-01-14T14:35:26.220Z,56.67
2018-01-14T14:37:54.064Z,63.75
2018-01-14T14:40:21.880Z,57.42
2018-01-14T14:42:49.741Z,58.83
2018-01-14T14:45:17.580Z,57.45
2018-01-14T14:47:45.435Z,59.15
2018-01-14T14:50:13.296Z,63.97
2018-01-14T14:52:41.160Z,69.70
2018-01-14T14:55:09.095Z,61.58
2018-01-14T14:57:36.938Z,65.32
2018-01-14T15:00:04.861Z,65.78
2018-01-14T15:02:32.695Z,61.28
2018-01-14T15:05:00.507Z,63.10
2018-01-14T15:07:28.349Z,70.57
2018-01-14T15:09:56.152Z,57.97
2018-01-14T15:12:24.017Z,67.47
2018-01-14T15:14:51.968Z,68.65
2018-01-14T15:17:19.790Z,62.20
2018-01-14T15:19:47.599Z,68.53
2018-01-14T15:22:17.587Z,64.82
2018-01-14T15:24:45.425Z,71.40
2018-01-14T15:27:13.232Z,61.15
2018-01-14T15:29:42.391Z,61.85
2018-01-14T15:32:10.602Z,64.50
2018-01-14T15:34:38.427Z,58.40
2018-01-14T15:37:06.324Z,68.10
2018-01-14T15:39:34.168Z,70.87
2018-01-14T15:42:02.012Z,54.83
2018-01-14T15:44:29.840Z,63.40
2018-01-14T15:46:57.689Z,62.75
2018-01-14T15:49:25.503Z,62.35
2018-01-14T15:51:53.340Z,57.28
2018-01-14T15:54:21.164Z,58.33
2018-01-14T15:56:48.976Z,62.75
2018-01-14T15:59:16.825Z,55.88
2018-01-14T16:01:44.644Z,53.92
2018-01-14T16:04:12.481Z,57.97
2018-01-14T16:06:40.308Z,58.95
2018-01-14T16:09:08.151Z,62.65
2018-01-14T16:11:35.979Z,61.03
2018-01-14T16:14:03.830Z,63.63
2018-01-14T16:16:31.650Z,54.95
2018-01-14T16:18:59.677Z,57.95
2018-01-14T16:21:27.513Z,52.97
2018-01-14T16:23:55.452Z,61.88
2018-01-14T16:26:23.339Z,59.75
2018-01-14T16:28:51.219Z,56.22
2018-01-14T16:31:19.038Z,59.13
2018-01-14T16:33:46.901Z,52.72
2018-01-14T16:36:14.733Z,61.22
2018-01-14T16:38:42.572Z,57.88
2018-01-14T16:41:10.404Z,57.88
2018-01-14T16:43:38.220Z,58.75
2018-01-14T16:46:06.039Z,59.17
2018-01-14T16:48:33.895Z,57.88
2018-01-14T16:51:01.735Z,54.60
2018-01-14T16:53:29.569Z,57.92
2018-01-14T16:55:57.391Z,57.33
2018-01-14T16:58:25.240Z,51.83
2018-01-14T17:00:53.062Z,55.00
2018-01-14T17:03:20.887Z,56.50
2018-01-14T17:05:48.704Z,69.32
2018-01-14T17:08:16.574Z,60.42
2018-01-14T17:10:44.428Z,66.03
2018-01-14T17:13:12.248Z,61.08
2018-01-14T17:15:40.076Z,61.78
2018-01-14T17:18:07.892Z,66.50
2018-01-14T17:20:35.757Z,65.20
2018-01-14T17:23:03.584Z,60.88
2018-01-14T17:25:31.415Z,60.10
2018-01-14T17:27:59.247Z,53.67
2018-01-14T17:30:27.080Z,61.13
2018-01-14T17:32:54.912Z,49.03
2018-01-14T17:35:22.741Z,60.97
2018-01-14T17:37:50.551Z,56.22
2018-01-14T17:40:18.371Z,57.47
2018-01-14T17:42:46.301Z,60.90
2018-01-14T17:45:14.140Z,57.22
2018-01-14T17:47:42.006Z,59.63
2018-01-14T17:50:09.842Z,58.50
2018-01-14T17:52:37.699Z,60.03
2018-01-14T17:55:05.564Z,53.92
2018-01-14T17:57:33.400Z,60.00
2018-01-14T18:00:01.297Z,57.17
2018-01-14T18:02:29.163Z,63.87
2018-01-14T18:04:57.044Z,58.67
2018-01-14T18:07:24.913Z,54.95
2018-01-14T18:09:52.764Z,63.92
2018-01-14T18:12:20.630Z,57.90
2018-01-14T18:14:48.505Z,61.50
2018-01-14T18:17:22.508Z,57.35
2018-01-14T18:19:50.372Z,50.20
2018-01-14T18:22:18.231Z,64.93
2018-01-14T18:24:46.067Z,55.45
2018-01-14T18:27:13.923Z,61.05
2018-01-14T18:29:41.845Z,58.83
2018-01-14T18:32:09.689Z,66.78
2018-01-14T18:34:37.614Z,68.70
2018-01-14T18:37:05.464Z,64.22
2018-01-14T18:39:33.308Z,48.28
2018-01-14T18:42:01.193Z,62.67
2018-01-14T18:44:29.044Z,67.85
2018-01-14T18:46:56.927Z,65.28
2018-01-14T18:49:24.751Z,65.35
2018-01-14T18:51:52.597Z,57.97
2018-01-14T18:54:20.860Z,51.75
2018-01-14T18:56:48.739Z,53.38
2018-01-14T18:59:16.564Z,57.67
2018-01-14T19:01:44.392Z,65.18
2018-01-14T19:04:12.227Z,61.05
2018-01-14T19:06:40.056Z,59.95
2018-01-14T19:09:07.883Z,58.33
2018-01-14T19:11:35.719Z,64.20
2018-01-14T19:14:03.544Z,55.20
2018-01-14T19:16:31.369Z,58.78
2018-01-14T19:18:59.255Z,62.45
2018-01-14T19:21:27.100Z,57.65
2018-01-14T19:23:55.732Z,58.92
2018-01-14T19:26:25.133Z,60.90
2018-01-14T19:28:53.065Z,59.83
2018-01-14T19:31:20.908Z,60.20
2018-01-14T19:33:48.743Z,61.97
2018-01-14T19:36:16.576Z,55.83
2018-01-14T19:38:44.412Z,61.42
2018-01-14T19:41:12.264Z,72.78
2018-01-14T19:43:40.091Z,61.60
2018-01-14T19:46:07.919Z,63.67
2018-01-14T19:48:35.783Z,53.75
2018-01-14T19:51:03.625Z,58.25
2018-01-14T19:53:31.447Z,56.05
2018-01-14T19:55:59.271Z,62.13
2018-01-14T19:58:27.133Z,55.83
2018-01-14T20:00:54.944Z,61.25
2018-01-14T20:03:22.771Z,49.40
2018-01-14T20:05:50.591Z,60.80
2018-01-14T20:08:18.428Z,53.90
2018-01-14T20:10:46.252Z,65.82
2018-01-14T20:13:14.085Z,58.45
2018-01-14T20:15:41.893Z,63.08
2018-01-14T20:18:09.726Z,79.28
2018-01-14T20:20:37.567Z,60.60
2018-01-14T20:23:05.422Z,55.45
2018-01-14T20:25:33.248Z,61.13
2018-01-14T20:28:01.078Z,59.63
2018-01-14T20:30:28.920Z,64.07
2018-01-14T20:32:56.756Z,63.70
2018-01-14T20:35:24.609Z,64.72
2018-01-14T20:37:52.453Z,58.38
2018-01-14T20:40:20.285Z,62.53
2018-01-14T20:42:48.131Z,76.43
2018-01-14T20:45:15.980Z,61.90
2018-01-14T20:47:43.859Z,69.55
2018-01-14T20:50:11.666Z,66.72
2018-01-14T20:52:39.522Z,62.42
2018-01-14T20:55:07.377Z,73.97
2018-01-14T20:57:35.214Z,61.45
2018-01-14T21:00:03.308Z,60.38
2018-01-14T21:02:31.156Z,74.97
2018-01-14T21:04:58.980Z,64.78
2018-01-14T21:07:26.816Z,55.70
2018-01-14T21:09:54.652Z,60.05
2018-01-14T21:12:22.500Z,55.50
2018-01-14T21:14:50.330Z,68.35
2018-01-14T21:17:18.148Z,62.13
2018-01-14T21:19:45.979Z,70.57
2018-01-14T21:22:13.818Z,64.30
2018-01-14T21:24:41.657Z,64.32
2018-01-14T21:27:10.561Z,64.85
2018-01-14T21:29:38.395Z,61.50
2018-01-14T21:32:06.223Z,62.25
2018-01-14T21:34:34.089Z,74.05
2018-01-14T21:37:01.961Z,71.25
2018-01-14T21:39:29.839Z,65.18
2018-01-14T21:41:57.795Z,63.53
2018-01-14T21:44:25.708Z,66.28
2018-01-14T21:46:53.681Z,65.72
2018-01-14T21:49:21.544Z,58.70
2018-01-14T21:51:49.414Z,62.45
2018-01-14T21:54:17.215Z,60.75
2018-01-14T21:56:45.049Z,63.10
2018-01-14T21:59:12.892Z,65.95
2018-01-14T22:01:40.716Z,70.50
2018-01-14T22:04:08.524Z,66.85
2018-01-14T22:06:36.375Z,61.30
2018-01-14T22:09:04.212Z,73.37
2018-01-14T22:11:32.062Z,58.72
2018-01-14T22:13:59.901Z,57.90
2018-01-14T22:16:27.730Z,58.55
2018-01-14T22:18:55.556Z,65.85
2018-01-14T22:21:23.405Z,67.90
2018-01-14T22:23:51.230Z,56.85
2018-01-14T22:26:19.071Z,66.95
2018-01-14T22:28:46.943Z,65.35
2018-01-14T22:31:14.793Z,60.08
2018-01-14T22:33:42.680Z,68.65
2018-01-14T22:36:11.106Z,72.37
2018-01-14T22:38:38.915Z,62.90
2018-01-14T22:41:06.777Z,68.72
2018-01-14T22:43:34.645Z,53.97
2018-01-14T22:46:02.487Z,63.00
2018-01-14T22:48:30.323Z,63.00
2018-01-14T22:50:58.128Z,66.43
2018-01-14T22:53:25.978Z,73.82
2018-01-14T22:55:53.792Z,72.85
2018-01-14T22:58:21.645Z,68.25
2018-01-14T23:00:49.464Z,68.35
2018-01-14T23:03:17.319Z,72.40
2018-01-14T23:05:45.149Z,62.05
2018-01-14T23:08:12.983Z,74.28
2018-01-14T23:10:40.828Z,62.80
2018-01-14T23:13:08.687Z,66.12
2018-01-14T23:15:36.509Z,64.82
2018-01-14T23:18:04.358Z,64.05
2018-01-14T23:20:32.180Z,74.80
2018-01-14T23:23:00.029Z,71.05
2018-01-14T23:25:27.828Z,77.70
2018-01-14T23:27:55.657Z,70.87
2018-01-14T23:30:23.468Z,70.28
2018-01-14T23:32:51.292Z,67.55
2018-01-14T23:35:19.144Z,64.78
2018-01-14T23:37:46.948Z,81.97
2018-01-14T23:40:14.797Z,73.03
2018-01-14T23:42:42.665Z,66.00
2018-01-14T23:45:10.495Z,60.33
2018-01-14T23:47:38.324Z,72.28
2018-01-14T23:50:06.206Z,66.53
2018-01-14T23:52:34.088Z,68.05
2018-01-14T23:55:01.922Z,72.78
2018-01-14T23:57:29.760Z,79.47
2018-01-14T23:59:57.590Z,74.43
